sensor_id;sensor_type;location;lat;lon;timestamp;P1;durP1;ratioP1;P2;durP2;ratioP2
8268;SDS011;4174;48.304;16.364;2023-04-25T00:01:01;5.37;;;2.10;;
8268;SDS011;4174;48.304;16.364;2023-04-25T00:07:03;5.47;;;2.10;;
8268;SDS011;4174;48.304;16.364;2023-04-25T00:13:06;4.93;;;1.87;;
8268;SDS011;4174;48.304;16.364;2023-04-25T00:19:09;7.47;;;2.20;;
8268;SDS011;4174;48.304;16.364;2023-04-25T00:25:13;6.60;;;2.05;;
8268;SDS011;4174;48.304;16.364;2023-04-25T00:31:16;6.00;;;2.10;;
8268;SDS011;4174;48.304;16.364;2023-04-25T00:37:19;5.60;;;2.20;;
8268;SDS011;4174;48.304;16.364;2023-04-25T00:43:24;6.67;;;2.23;;
8268;SDS011;4174;48.304;16.364;2023-04-25T00:49:27;6.18;;;2.37;;
8268;SDS011;4174;48.304;16.364;2023-04-25T00:55:31;5.93;;;2.30;;
8268;SDS011;4174;48.304;16.364;2023-04-25T01:01:34;6.70;;;2.23;;
8268;SDS011;4174;48.304;16.364;2023-04-25T01:07:37;6.62;;;2.55;;
8268;SDS011;4174;48.304;16.364;2023-04-25T01:13:39;6.35;;;2.50;;
8268;SDS011;4174;48.304;16.364;2023-04-25T01:19:42;7.32;;;2.62;;
8268;SDS011;4174;48.304;16.364;2023-04-25T01:25:45;5.97;;;2.47;;
8268;SDS011;4174;48.304;16.364;2023-04-25T01:31:49;5.70;;;2.40;;
8268;SDS011;4174;48.304;16.364;2023-04-25T01:37:52;7.82;;;2.60;;
8268;SDS011;4174;48.304;16.364;2023-04-25T01:43:55;6.20;;;2.50;;
8268;SDS011;4174;48.304;16.364;2023-04-25T01:49:58;5.72;;;2.47;;
8268;SDS011;4174;48.304;16.364;2023-04-25T01:56:01;7.00;;;2.43;;
8268;SDS011;4174;48.304;16.364;2023-04-25T02:02:06;6.18;;;2.40;;
8268;SDS011;4174;48.304;16.364;2023-04-25T02:08:09;6.80;;;2.67;;
8268;SDS011;4174;48.304;16.364;2023-04-25T02:14:12;5.90;;;2.50;;
8268;SDS011;4174;48.304;16.364;2023-04-25T02:20:15;6.03;;;2.60;;
8268;SDS011;4174;48.304;16.364;2023-04-25T02:26:18;6.72;;;2.70;;
8268;SDS011;4174;48.304;16.364;2023-04-25T02:32:22;7.47;;;2.80;;
8268;SDS011;4174;48.304;16.364;2023-04-25T02:38:25;6.70;;;2.80;;
8268;SDS011;4174;48.304;16.364;2023-04-25T02:44:29;6.27;;;2.67;;
8268;SDS011;4174;48.304;16.364;2023-04-25T02:50:33;8.13;;;3.15;;
8268;SDS011;4174;48.304;16.364;2023-04-25T02:56:36;6.60;;;2.80;;
8268;SDS011;4174;48.304;16.364;2023-04-25T03:02:40;6.67;;;2.80;;
8268;SDS011;4174;48.304;16.364;2023-04-25T03:08:44;7.95;;;2.65;;
8268;SDS011;4174;48.304;16.364;2023-04-25T03:14:48;6.57;;;2.80;;
8268;SDS011;4174;48.304;16.364;2023-04-25T03:20:52;9.02;;;2.90;;
8268;SDS011;4174;48.304;16.364;2023-04-25T03:26:56;8.07;;;2.93;;
8268;SDS011;4174;48.304;16.364;2023-04-25T03:33:00;7.17;;;3.20;;
8268;SDS011;4174;48.304;16.364;2023-04-25T03:39:03;6.85;;;3.00;;
8268;SDS011;4174;48.304;16.364;2023-04-25T03:45:08;7.73;;;3.00;;
8268;SDS011;4174;48.304;16.364;2023-04-25T03:51:14;7.75;;;3.47;;
8268;SDS011;4174;48.304;16.364;2023-04-25T03:57:17;10.15;;;3.80;;
8268;SDS011;4174;48.304;16.364;2023-04-25T04:03:21;8.83;;;3.53;;
8268;SDS011;4174;48.304;16.364;2023-04-25T04:09:25;9.40;;;3.40;;
8268;SDS011;4174;48.304;16.364;2023-04-25T04:15:30;7.33;;;3.03;;
8268;SDS011;4174;48.304;16.364;2023-04-25T04:21:33;7.15;;;2.95;;
8268;SDS011;4174;48.304;16.364;2023-04-25T04:27:37;7.80;;;3.47;;
8268;SDS011;4174;48.304;16.364;2023-04-25T04:33:39;7.60;;;3.30;;
8268;SDS011;4174;48.304;16.364;2023-04-25T04:39:44;8.00;;;3.43;;
8268;SDS011;4174;48.304;16.364;2023-04-25T04:45:47;9.25;;;4.05;;
8268;SDS011;4174;48.304;16.364;2023-04-25T04:51:49;8.30;;;3.63;;
8268;SDS011;4174;48.304;16.364;2023-04-25T04:57:52;8.20;;;3.40;;
8268;SDS011;4174;48.304;16.364;2023-04-25T05:03:56;9.15;;;3.60;;
8268;SDS011;4174;48.304;16.364;2023-04-25T05:10:01;8.27;;;3.58;;
8268;SDS011;4174;48.304;16.364;2023-04-25T05:16:06;7.57;;;3.13;;
8268;SDS011;4174;48.304;16.364;2023-04-25T05:22:10;9.23;;;3.10;;
8268;SDS011;4174;48.304;16.364;2023-04-25T05:28:14;8.07;;;3.47;;
8268;SDS011;4174;48.304;16.364;2023-04-25T05:34:17;9.17;;;3.43;;
8268;SDS011;4174;48.304;16.364;2023-04-25T05:40:21;8.00;;;3.50;;
8268;SDS011;4174;48.304;16.364;2023-04-25T05:46:24;8.70;;;3.67;;
8268;SDS011;4174;48.304;16.364;2023-04-25T05:52:28;8.43;;;3.60;;
8268;SDS011;4174;48.304;16.364;2023-04-25T05:58:32;7.43;;;3.27;;
8268;SDS011;4174;48.304;16.364;2023-04-25T06:04:35;7.17;;;2.90;;
8268;SDS011;4174;48.304;16.364;2023-04-25T06:10:39;6.83;;;2.70;;
8268;SDS011;4174;48.304;16.364;2023-04-25T06:16:43;6.73;;;2.57;;
8268;SDS011;4174;48.304;16.364;2023-04-25T06:22:47;6.35;;;2.60;;
8268;SDS011;4174;48.304;16.364;2023-04-25T06:28:50;6.50;;;2.53;;
8268;SDS011;4174;48.304;16.364;2023-04-25T06:34:53;6.47;;;2.60;;
8268;SDS011;4174;48.304;16.364;2023-04-25T06:40:58;6.95;;;2.70;;
8268;SDS011;4174;48.304;16.364;2023-04-25T06:47:02;6.78;;;2.50;;
8268;SDS011;4174;48.304;16.364;2023-04-25T06:53:05;6.27;;;2.63;;
8268;SDS011;4174;48.304;16.364;2023-04-25T06:59:09;6.97;;;2.50;;
8268;SDS011;4174;48.304;16.364;2023-04-25T07:05:16;6.00;;;2.53;;
8268;SDS011;4174;48.304;16.364;2023-04-25T07:11:21;5.62;;;2.20;;
8268;SDS011;4174;48.304;16.364;2023-04-25T07:17:25;5.80;;;2.20;;
8268;SDS011;4174;48.304;16.364;2023-04-25T07:23:28;5.93;;;2.27;;
8268;SDS011;4174;48.304;16.364;2023-04-25T07:29:32;5.90;;;2.30;;
8268;SDS011;4174;48.304;16.364;2023-04-25T07:35:35;6.30;;;2.50;;
8268;SDS011;4174;48.304;16.364;2023-04-25T07:41:39;6.60;;;2.20;;
8268;SDS011;4174;48.304;16.364;2023-04-25T07:47:43;5.70;;;2.30;;
8268;SDS011;4174;48.304;16.364;2023-04-25T07:53:47;6.87;;;2.27;;
8268;SDS011;4174;48.304;16.364;2023-04-25T07:59:51;5.95;;;2.40;;
8268;SDS011;4174;48.304;16.364;2023-04-25T08:05:55;6.07;;;2.00;;
8268;SDS011;4174;48.304;16.364;2023-04-25T08:11:59;6.40;;;2.40;;
8268;SDS011;4174;48.304;16.364;2023-04-25T08:18:02;5.50;;;2.22;;
8268;SDS011;4174;48.304;16.364;2023-04-25T08:24:05;5.30;;;2.30;;
8268;SDS011;4174;48.304;16.364;2023-04-25T08:30:09;6.28;;;2.10;;
8268;SDS011;4174;48.304;16.364;2023-04-25T08:36:15;4.90;;;2.10;;
8268;SDS011;4174;48.304;16.364;2023-04-25T08:42:19;6.03;;;2.28;;
8268;SDS011;4174;48.304;16.364;2023-04-25T08:48:23;5.43;;;2.40;;
8268;SDS011;4174;48.304;16.364;2023-04-25T08:54:26;6.00;;;2.40;;
8268;SDS011;4174;48.304;16.364;2023-04-25T09:00:29;6.80;;;2.70;;
8268;SDS011;4174;48.304;16.364;2023-04-25T09:06:33;5.60;;;2.40;;
8268;SDS011;4174;48.304;16.364;2023-04-25T09:12:36;6.60;;;2.40;;
8268;SDS011;4174;48.304;16.364;2023-04-25T09:18:41;5.65;;;2.03;;
8268;SDS011;4174;48.304;16.364;2023-04-25T09:24:44;5.00;;;1.80;;
8268;SDS011;4174;48.304;16.364;2023-04-25T09:30:48;5.57;;;2.10;;
8268;SDS011;4174;48.304;16.364;2023-04-25T09:36:53;5.40;;;2.00;;
8268;SDS011;4174;48.304;16.364;2023-04-25T09:42:54;5.62;;;1.83;;
8268;SDS011;4174;48.304;16.364;2023-04-25T09:48:57;5.27;;;1.90;;
8268;SDS011;4174;48.304;16.364;2023-04-25T09:55:01;4.87;;;1.40;;
8268;SDS011;4174;48.304;16.364;2023-04-25T10:01:07;6.20;;;1.80;;
8268;SDS011;4174;48.304;16.364;2023-04-25T10:07:09;5.57;;;2.03;;
8268;SDS011;4174;48.304;16.364;2023-04-25T10:13:12;5.93;;;2.60;;
8268;SDS011;4174;48.304;16.364;2023-04-25T10:19:15;6.60;;;2.10;;
8268;SDS011;4174;48.304;16.364;2023-04-25T10:25:17;5.17;;;2.00;;
8268;SDS011;4174;48.304;16.364;2023-04-25T10:31:21;5.63;;;1.83;;
8268;SDS011;4174;48.304;16.364;2023-04-25T10:37:24;5.13;;;1.73;;
8268;SDS011;4174;48.304;16.364;2023-04-25T10:43:35;6.40;;;1.60;;
8268;SDS011;4174;48.304;16.364;2023-04-25T10:49:41;4.93;;;1.77;;
8268;SDS011;4174;48.304;16.364;2023-04-25T10:55:49;4.47;;;1.50;;
8268;SDS011;4174;48.304;16.364;2023-04-25T11:01:52;4.40;;;1.60;;
8268;SDS011;4174;48.304;16.364;2023-04-25T11:07:56;4.73;;;1.63;;
8268;SDS011;4174;48.304;16.364;2023-04-25T11:13:58;5.00;;;1.73;;
8268;SDS011;4174;48.304;16.364;2023-04-25T11:20:02;5.03;;;1.60;;
8268;SDS011;4174;48.304;16.364;2023-04-25T11:26:09;5.90;;;1.80;;
8268;SDS011;4174;48.304;16.364;2023-04-25T11:32:12;6.60;;;1.70;;
8268;SDS011;4174;48.304;16.364;2023-04-25T11:38:16;4.85;;;1.60;;
8268;SDS011;4174;48.304;16.364;2023-04-25T11:44:20;4.67;;;1.30;;
8268;SDS011;4174;48.304;16.364;2023-04-25T11:50:22;3.95;;;1.08;;
8268;SDS011;4174;48.304;16.364;2023-04-25T11:56:26;5.37;;;1.30;;
8268;SDS011;4174;48.304;16.364;2023-04-25T12:02:30;4.60;;;1.00;;
8268;SDS011;4174;48.304;16.364;2023-04-25T12:08:33;3.77;;;1.10;;
8268;SDS011;4174;48.304;16.364;2023-04-25T12:14:36;3.73;;;1.00;;
8268;SDS011;4174;48.304;16.364;2023-04-25T12:20:41;5.17;;;1.13;;
8268;SDS011;4174;48.304;16.364;2023-04-25T12:27:01;4.50;;;1.30;;
8268;SDS011;4174;48.304;16.364;2023-04-25T12:33:04;3.92;;;1.10;;
8268;SDS011;4174;48.304;16.364;2023-04-25T12:39:07;5.30;;;1.30;;
8268;SDS011;4174;48.304;16.364;2023-04-25T12:45:10;3.67;;;1.03;;
8268;SDS011;4174;48.304;16.364;2023-04-25T12:51:14;5.15;;;1.30;;
8268;SDS011;4174;48.304;16.364;2023-04-25T12:57:18;4.07;;;1.10;;
8268;SDS011;4174;48.304;16.364;2023-04-25T13:03:21;4.50;;;1.20;;
8268;SDS011;4174;48.304;16.364;2023-04-25T13:09:25;3.70;;;1.12;;
8268;SDS011;4174;48.304;16.364;2023-04-25T13:15:31;4.20;;;1.02;;
8268;SDS011;4174;48.304;16.364;2023-04-25T13:21:34;4.90;;;1.00;;
8268;SDS011;4174;48.304;16.364;2023-04-25T13:27:38;3.80;;;1.00;;
8268;SDS011;4174;48.304;16.364;2023-04-25T13:33:41;3.70;;;1.00;;
8268;SDS011;4174;48.304;16.364;2023-04-25T13:39:44;3.83;;;0.90;;
8268;SDS011;4174;48.304;16.364;2023-04-25T13:45:49;4.50;;;1.00;;
8268;SDS011;4174;48.304;16.364;2023-04-25T13:51:50;3.50;;;1.00;;
8268;SDS011;4174;48.304;16.364;2023-04-25T13:57:54;3.45;;;0.90;;
8268;SDS011;4174;48.304;16.364;2023-04-25T14:03:58;3.70;;;1.10;;
8268;SDS011;4174;48.304;16.364;2023-04-25T14:10:02;4.03;;;1.30;;
8268;SDS011;4174;48.304;16.364;2023-04-25T14:16:05;4.10;;;1.10;;
8268;SDS011;4174;48.304;16.364;2023-04-25T14:22:09;3.50;;;1.00;;
8268;SDS011;4174;48.304;16.364;2023-04-25T14:28:12;3.60;;;1.00;;
8268;SDS011;4174;48.304;16.364;2023-04-25T14:34:16;3.78;;;0.88;;
8268;SDS011;4174;48.304;16.364;2023-04-25T14:40:20;3.40;;;0.80;;
8268;SDS011;4174;48.304;16.364;2023-04-25T14:46:24;3.95;;;1.10;;
8268;SDS011;4174;48.304;16.364;2023-04-25T14:52:28;4.27;;;1.10;;
8268;SDS011;4174;48.304;16.364;2023-04-25T14:58:30;4.62;;;1.40;;
8268;SDS011;4174;48.304;16.364;2023-04-25T15:04:34;5.05;;;1.60;;
8268;SDS011;4174;48.304;16.364;2023-04-25T15:10:37;5.60;;;1.80;;
8268;SDS011;4174;48.304;16.364;2023-04-25T15:16:40;4.40;;;1.47;;
8268;SDS011;4174;48.304;16.364;2023-04-25T15:22:44;4.43;;;1.30;;
8268;SDS011;4174;48.304;16.364;2023-04-25T15:28:48;3.90;;;1.10;;
8268;SDS011;4174;48.304;16.364;2023-04-25T15:34:51;4.67;;;1.07;;
8268;SDS011;4174;48.304;16.364;2023-04-25T15:40:56;4.10;;;1.20;;
8268;SDS011;4174;48.304;16.364;2023-04-25T15:47:00;4.03;;;1.15;;
8268;SDS011;4174;48.304;16.364;2023-04-25T15:53:04;4.43;;;0.80;;
8268;SDS011;4174;48.304;16.364;2023-04-25T15:59:08;3.40;;;0.80;;
8268;SDS011;4174;48.304;16.364;2023-04-25T16:05:11;4.00;;;1.00;;
8268;SDS011;4174;48.304;16.364;2023-04-25T16:11:14;3.60;;;1.00;;
8268;SDS011;4174;48.304;16.364;2023-04-25T16:17:17;4.03;;;0.80;;
8268;SDS011;4174;48.304;16.364;2023-04-25T16:23:21;3.75;;;0.98;;
8268;SDS011;4174;48.304;16.364;2023-04-25T16:29:25;3.60;;;0.85;;
8268;SDS011;4174;48.304;16.364;2023-04-25T16:35:29;3.67;;;0.80;;
8268;SDS011;4174;48.304;16.364;2023-04-25T16:41:32;3.20;;;0.80;;
8268;SDS011;4174;48.304;16.364;2023-04-25T16:47:35;4.03;;;1.00;;
8268;SDS011;4174;48.304;16.364;2023-04-25T16:53:40;3.50;;;0.90;;
8268;SDS011;4174;48.304;16.364;2023-04-25T16:59:42;4.37;;;1.10;;
8268;SDS011;4174;48.304;16.364;2023-04-25T17:05:47;3.80;;;1.00;;
8268;SDS011;4174;48.304;16.364;2023-04-25T17:11:49;3.97;;;0.97;;
8268;SDS011;4174;48.304;16.364;2023-04-25T17:17:53;3.72;;;1.08;;
8268;SDS011;4174;48.304;16.364;2023-04-25T17:23:56;4.33;;;1.13;;
8268;SDS011;4174;48.304;16.364;2023-04-25T17:29:59;4.50;;;1.30;;
8268;SDS011;4174;48.304;16.364;2023-04-25T17:36:03;5.10;;;1.60;;
8268;SDS011;4174;48.304;16.364;2023-04-25T17:42:08;5.28;;;1.60;;
8268;SDS011;4174;48.304;16.364;2023-04-25T17:48:11;5.53;;;1.80;;
8268;SDS011;4174;48.304;16.364;2023-04-25T17:54:15;4.68;;;1.50;;
8268;SDS011;4174;48.304;16.364;2023-04-25T18:00:19;4.40;;;1.50;;
8268;SDS011;4174;48.304;16.364;2023-04-25T18:06:23;5.18;;;1.55;;
8268;SDS011;4174;48.304;16.364;2023-04-25T18:12:28;4.63;;;1.30;;
8268;SDS011;4174;48.304;16.364;2023-04-25T18:18:32;5.05;;;1.37;;
8268;SDS011;4174;48.304;16.364;2023-04-25T18:24:35;4.20;;;1.30;;
8268;SDS011;4174;48.304;16.364;2023-04-25T18:30:39;5.30;;;1.40;;
8268;SDS011;4174;48.304;16.364;2023-04-25T18:36:42;4.70;;;1.40;;
8268;SDS011;4174;48.304;16.364;2023-04-25T18:42:46;4.60;;;1.40;;
8268;SDS011;4174;48.304;16.364;2023-04-25T18:48:50;4.27;;;1.33;;
8268;SDS011;4174;48.304;16.364;2023-04-25T18:54:52;5.53;;;1.20;;
8268;SDS011;4174;48.304;16.364;2023-04-25T19:00:55;4.27;;;1.30;;
8268;SDS011;4174;48.304;16.364;2023-04-25T19:07:00;4.97;;;1.60;;
8268;SDS011;4174;48.304;16.364;2023-04-25T19:13:03;4.72;;;1.40;;
8268;SDS011;4174;48.304;16.364;2023-04-25T19:19:07;5.80;;;1.50;;
8268;SDS011;4174;48.304;16.364;2023-04-25T19:25:10;4.85;;;1.58;;
8268;SDS011;4174;48.304;16.364;2023-04-25T19:31:13;4.82;;;1.37;;
8268;SDS011;4174;48.304;16.364;2023-04-25T19:37:17;4.23;;;1.40;;
8268;SDS011;4174;48.304;16.364;2023-04-25T19:43:20;4.67;;;1.33;;
8268;SDS011;4174;48.304;16.364;2023-04-25T19:49:24;4.30;;;1.37;;
8268;SDS011;4174;48.304;16.364;2023-04-25T19:55:27;4.70;;;1.40;;
8268;SDS011;4174;48.304;16.364;2023-04-25T20:01:30;5.33;;;1.60;;
8268;SDS011;4174;48.304;16.364;2023-04-25T20:07:35;5.70;;;1.50;;
8268;SDS011;4174;48.304;16.364;2023-04-25T20:13:38;4.60;;;1.40;;
8268;SDS011;4174;48.304;16.364;2023-04-25T20:19:42;4.40;;;1.42;;
8268;SDS011;4174;48.304;16.364;2023-04-25T20:25:45;4.72;;;1.67;;
8268;SDS011;4174;48.304;16.364;2023-04-25T20:31:49;5.43;;;1.70;;
8268;SDS011;4174;48.304;16.364;2023-04-25T20:37:52;5.57;;;2.10;;
8268;SDS011;4174;48.304;16.364;2023-04-25T20:43:55;5.80;;;1.80;;
8268;SDS011;4174;48.304;16.364;2023-04-25T20:49:59;6.50;;;1.90;;
8268;SDS011;4174;48.304;16.364;2023-04-25T20:56:02;5.68;;;2.05;;
8268;SDS011;4174;48.304;16.364;2023-04-25T21:02:05;5.43;;;2.13;;
8268;SDS011;4174;48.304;16.364;2023-04-25T21:08:08;6.37;;;2.30;;
8268;SDS011;4174;48.304;16.364;2023-04-25T21:14:11;6.73;;;2.60;;
8268;SDS011;4174;48.304;16.364;2023-04-25T21:20:15;5.60;;;2.10;;
8268;SDS011;4174;48.304;16.364;2023-04-25T21:26:18;5.50;;;2.00;;
8268;SDS011;4174;48.304;16.364;2023-04-25T21:32:21;5.62;;;2.10;;
8268;SDS011;4174;48.304;16.364;2023-04-25T21:38:25;6.18;;;2.00;;
8268;SDS011;4174;48.304;16.364;2023-04-25T21:44:29;5.20;;;1.80;;
8268;SDS011;4174;48.304;16.364;2023-04-25T21:50:31;5.33;;;1.60;;
8268;SDS011;4174;48.304;16.364;2023-04-25T21:56:34;5.40;;;1.73;;
8268;SDS011;4174;48.304;16.364;2023-04-25T22:02:38;5.07;;;1.80;;
8268;SDS011;4174;48.304;16.364;2023-04-25T22:08:42;5.10;;;1.90;;
8268;SDS011;4174;48.304;16.364;2023-04-25T22:14:46;6.30;;;2.30;;
8268;SDS011;4174;48.304;16.364;2023-04-25T22:20:49;7.67;;;3.10;;
8268;SDS011;4174;48.304;16.364;2023-04-25T22:26:52;8.63;;;3.63;;
8268;SDS011;4174;48.304;16.364;2023-04-25T22:32:55;9.83;;;3.60;;
8268;SDS011;4174;48.304;16.364;2023-04-25T22:38:59;7.47;;;3.53;;
8268;SDS011;4174;48.304;16.364;2023-04-25T22:45:03;7.85;;;3.53;;
8268;SDS011;4174;48.304;16.364;2023-04-25T22:51:09;8.70;;;3.80;;
8268;SDS011;4174;48.304;16.364;2023-04-25T22:57:12;8.87;;;3.97;;
8268;SDS011;4174;48.304;16.364;2023-04-25T23:03:16;9.87;;;4.00;;
8268;SDS011;4174;48.304;16.364;2023-04-25T23:09:19;8.87;;;4.03;;
8268;SDS011;4174;48.304;16.364;2023-04-25T23:15:24;10.57;;;4.20;;
8268;SDS011;4174;48.304;16.364;2023-04-25T23:21:26;10.02;;;4.10;;
8268;SDS011;4174;48.304;16.364;2023-04-25T23:27:30;11.37;;;4.20;;
8268;SDS011;4174;48.304;16.364;2023-04-25T23:33:33;9.43;;;4.10;;
8268;SDS011;4174;48.304;16.364;2023-04-25T23:39:37;10.90;;;4.17;;
8268;SDS011;4174;48.304;16.364;2023-04-25T23:45:40;9.13;;;4.40;;
8268;SDS011;4174;48.304;16.364;2023-04-25T23:51:43;10.70;;;4.33;;
8268;SDS011;4174;48.304;16.364;2023-04-25T23:57:47;9.95;;;4.07;;
